sensor_id;sensor_type;location;lat;lon;timestamp;temperature;humidity
7708;DHT22;3896;48.758;8.888;2023-09-19T00:00:19;18.30;99.90
7708;DHT22;3896;48.758;8.888;2023-09-19T00:02:51;18.30;99.90
7708;DHT22;3896;48.758;8.888;2023-09-19T00:05:17;18.30;99.90
7708;DHT22;3896;48.758;8.888;2023-09-19T00:07:42;18.30;99.90
7708;DHT22;3896;48.758;8.888;2023-09-19T00:10:08;18.30;99.90
7708;DHT22;3896;48.758;8.888;2023-09-19T00:12:35;18.30;99.90
7708;DHT22;3896;48.758;8.888;2023-09-19T00:15:00;18.30;99.90
7708;DHT22;3896;48.758;8.888;2023-09-19T00:17:27;18.30;99.90
7708;DHT22;3896;48.758;8.888;2023-09-19T00:19:55;18.30;99.90
7708;DHT22;3896;48.758;8.888;2023-09-19T00:22:21;18.30;99.90
7708;DHT22;3896;48.758;8.888;2023-09-19T00:24:46;18.20;99.90
7708;DHT22;3896;48.758;8.888;2023-09-19T00:27:12;18.20;99.90
7708;DHT22;3896;48.758;8.888;2023-09-19T00:29:37;18.20;99.90
7708;DHT22;3896;48.758;8.888;2023-09-19T00:32:06;18.20;99.90
7708;DHT22;3896;48.758;8.888;2023-09-19T00:34:32;18.20;99.90
7708;DHT22;3896;48.758;8.888;2023-09-19T00:36:59;18.20;99.90
7708;DHT22;3896;48.758;8.888;2023-09-19T00:39:25;18.20;99.90
7708;DHT22;3896;48.758;8.888;2023-09-19T00:41:51;18.20;99.90
7708;DHT22;3896;48.758;8.888;2023-09-19T00:44:16;18.20;99.90
7708;DHT22;3896;48.758;8.888;2023-09-19T00:46:43;18.20;99.90
7708;DHT22;3896;48.758;8.888;2023-09-19T00:49:11;18.20;99.90
7708;DHT22;3896;48.758;8.888;2023-09-19T00:51:37;18.20;99.90
7708;DHT22;3896;48.758;8.888;2023-09-19T00:54:03;18.20;99.90
7708;DHT22;3896;48.758;8.888;2023-09-19T00:56:29;18.20;99.90
7708;DHT22;3896;48.758;8.888;2023-09-19T00:58:55;18.20;99.90
7708;DHT22;3896;48.758;8.888;2023-09-19T01:01:20;18.20;99.90
7708;DHT22;3896;48.758;8.888;2023-09-19T01:03:46;18.20;99.90
7708;DHT22;3896;48.758;8.888;2023-09-19T01:06:12;18.20;99.90
7708;DHT22;3896;48.758;8.888;2023-09-19T01:08:38;18.20;99.90
7708;DHT22;3896;48.758;8.888;2023-09-19T01:11:21;18.20;99.90
7708;DHT22;3896;48.758;8.888;2023-09-19T01:14:06;18.10;99.90
7708;DHT22;3896;48.758;8.888;2023-09-19T01:16:47;18.10;99.90
7708;DHT22;3896;48.758;8.888;2023-09-19T01:29:49;18.00;99.90
7708;DHT22;3896;48.758;8.888;2023-09-19T01:32:17;18.00;99.90
7708;DHT22;3896;48.758;8.888;2023-09-19T01:34:54;18.00;99.90
7708;DHT22;3896;48.758;8.888;2023-09-19T01:37:22;18.00;99.90
7708;DHT22;3896;48.758;8.888;2023-09-19T01:40:15;18.00;99.90
7708;DHT22;3896;48.758;8.888;2023-09-19T01:42:59;17.90;99.90
7708;DHT22;3896;48.758;8.888;2023-09-19T01:46:03;17.90;99.90
7708;DHT22;3896;48.758;8.888;2023-09-19T01:48:45;17.90;99.90
7708;DHT22;3896;48.758;8.888;2023-09-19T01:51:17;17.90;99.90
7708;DHT22;3896;48.758;8.888;2023-09-19T01:56:55;17.90;99.90
7708;DHT22;3896;48.758;8.888;2023-09-19T01:59:21;17.80;99.90
7708;DHT22;3896;48.758;8.888;2023-09-19T02:01:49;17.80;99.90
7708;DHT22;3896;48.758;8.888;2023-09-19T02:04:15;17.80;99.90
7708;DHT22;3896;48.758;8.888;2023-09-19T02:06:41;17.70;99.90
7708;DHT22;3896;48.758;8.888;2023-09-19T02:09:07;17.70;99.90
7708;DHT22;3896;48.758;8.888;2023-09-19T02:27:00;17.70;99.90
7708;DHT22;3896;48.758;8.888;2023-09-19T02:29:29;17.70;99.90
7708;DHT22;3896;48.758;8.888;2023-09-19T02:31:55;17.60;99.90
7708;DHT22;3896;48.758;8.888;2023-09-19T02:34:21;17.60;99.90
7708;DHT22;3896;48.758;8.888;2023-09-19T02:36:47;17.60;99.90
7708;DHT22;3896;48.758;8.888;2023-09-19T02:39:13;17.60;99.90
7708;DHT22;3896;48.758;8.888;2023-09-19T02:41:38;17.60;99.90
7708;DHT22;3896;48.758;8.888;2023-09-19T02:44:04;17.60;99.90
7708;DHT22;3896;48.758;8.888;2023-09-19T02:46:33;17.60;99.90
7708;DHT22;3896;48.758;8.888;2023-09-19T02:48:59;17.50;99.90
7708;DHT22;3896;48.758;8.888;2023-09-19T02:51:24;17.50;99.90
7708;DHT22;3896;48.758;8.888;2023-09-19T02:53:50;17.50;99.90
7708;DHT22;3896;48.758;8.888;2023-09-19T02:56:18;17.50;99.90
7708;DHT22;3896;48.758;8.888;2023-09-19T02:58:44;17.50;99.90
7708;DHT22;3896;48.758;8.888;2023-09-19T03:01:10;17.50;99.90
7708;DHT22;3896;48.758;8.888;2023-09-19T03:03:37;17.50;99.90
7708;DHT22;3896;48.758;8.888;2023-09-19T03:06:05;17.50;99.90
7708;DHT22;3896;48.758;8.888;2023-09-19T03:08:31;17.50;99.90
7708;DHT22;3896;48.758;8.888;2023-09-19T03:11:03;17.50;99.90
7708;DHT22;3896;48.758;8.888;2023-09-19T03:13:33;17.40;99.90
7708;DHT22;3896;48.758;8.888;2023-09-19T03:16:01;17.40;99.90
7708;DHT22;3896;48.758;8.888;2023-09-19T03:18:30;17.40;99.90
7708;DHT22;3896;48.758;8.888;2023-09-19T03:20:57;17.40;99.90
7708;DHT22;3896;48.758;8.888;2023-09-19T03:23:25;17.40;99.90
7708;DHT22;3896;48.758;8.888;2023-09-19T03:25:52;17.40;99.90
7708;DHT22;3896;48.758;8.888;2023-09-19T03:28:18;17.40;99.90
7708;DHT22;3896;48.758;8.888;2023-09-19T03:30:44;17.40;99.90
7708;DHT22;3896;48.758;8.888;2023-09-19T03:33:09;17.40;99.90
7708;DHT22;3896;48.758;8.888;2023-09-19T03:35:38;17.40;99.90
7708;DHT22;3896;48.758;8.888;2023-09-19T03:38:05;17.40;99.90
7708;DHT22;3896;48.758;8.888;2023-09-19T03:40:31;17.40;99.90
7708;DHT22;3896;48.758;8.888;2023-09-19T03:42:56;17.40;99.90
7708;DHT22;3896;48.758;8.888;2023-09-19T03:45:22;17.40;99.90
7708;DHT22;3896;48.758;8.888;2023-09-19T03:47:47;17.40;99.90
7708;DHT22;3896;48.758;8.888;2023-09-19T03:50:13;17.40;99.90
7708;DHT22;3896;48.758;8.888;2023-09-19T03:52:43;17.40;99.90
7708;DHT22;3896;48.758;8.888;2023-09-19T03:55:09;17.40;99.90
7708;DHT22;3896;48.758;8.888;2023-09-19T03:57:38;17.40;99.90
7708;DHT22;3896;48.758;8.888;2023-09-19T04:00:04;17.40;99.90
7708;DHT22;3896;48.758;8.888;2023-09-19T04:02:40;17.40;99.90
7708;DHT22;3896;48.758;8.888;2023-09-19T04:05:06;17.40;99.90
7708;DHT22;3896;48.758;8.888;2023-09-19T04:07:32;17.40;99.90
7708;DHT22;3896;48.758;8.888;2023-09-19T04:09:57;17.40;99.90
7708;DHT22;3896;48.758;8.888;2023-09-19T04:12:23;17.40;99.90
7708;DHT22;3896;48.758;8.888;2023-09-19T04:14:48;17.40;99.90
7708;DHT22;3896;48.758;8.888;2023-09-19T04:17:15;17.40;99.90
7708;DHT22;3896;48.758;8.888;2023-09-19T04:19:41;17.40;99.90
7708;DHT22;3896;48.758;8.888;2023-09-19T04:22:06;17.40;99.90
7708;DHT22;3896;48.758;8.888;2023-09-19T04:24:32;17.40;99.90
7708;DHT22;3896;48.758;8.888;2023-09-19T04:26:58;17.40;99.90
7708;DHT22;3896;48.758;8.888;2023-09-19T04:29:24;17.40;99.90
7708;DHT22;3896;48.758;8.888;2023-09-19T04:31:52;17.40;99.90
7708;DHT22;3896;48.758;8.888;2023-09-19T04:34:17;17.40;99.90
7708;DHT22;3896;48.758;8.888;2023-09-19T04:36:43;17.40;99.90
7708;DHT22;3896;48.758;8.888;2023-09-19T04:39:09;17.40;99.90
7708;DHT22;3896;48.758;8.888;2023-09-19T04:41:36;17.40;99.90
7708;DHT22;3896;48.758;8.888;2023-09-19T04:44:05;17.40;99.90
7708;DHT22;3896;48.758;8.888;2023-09-19T04:46:30;17.40;99.90
7708;DHT22;3896;48.758;8.888;2023-09-19T04:48:56;17.40;99.90
7708;DHT22;3896;48.758;8.888;2023-09-19T04:51:22;17.40;99.90
7708;DHT22;3896;48.758;8.888;2023-09-19T04:53:47;17.40;99.90
7708;DHT22;3896;48.758;8.888;2023-09-19T04:56:13;17.40;99.90
7708;DHT22;3896;48.758;8.888;2023-09-19T04:58:39;17.40;99.90
7708;DHT22;3896;48.758;8.888;2023-09-19T05:01:04;17.40;99.90
7708;DHT22;3896;48.758;8.888;2023-09-19T05:03:30;17.40;99.90
7708;DHT22;3896;48.758;8.888;2023-09-19T05:05:56;17.40;99.90
7708;DHT22;3896;48.758;8.888;2023-09-19T05:08:21;17.40;99.90
7708;DHT22;3896;48.758;8.888;2023-09-19T05:10:47;17.40;99.90
7708;DHT22;3896;48.758;8.888;2023-09-19T05:13:14;17.40;99.90
7708;DHT22;3896;48.758;8.888;2023-09-19T05:15:40;17.40;99.90
7708;DHT22;3896;48.758;8.888;2023-09-19T05:18:06;17.40;99.90
7708;DHT22;3896;48.758;8.888;2023-09-19T05:20:31;17.30;99.90
7708;DHT22;3896;48.758;8.888;2023-09-19T05:23:02;17.30;99.90
7708;DHT22;3896;48.758;8.888;2023-09-19T05:25:34;17.30;99.90
7708;DHT22;3896;48.758;8.888;2023-09-19T05:28:04;17.30;99.90
7708;DHT22;3896;48.758;8.888;2023-09-19T05:30:31;17.30;99.90
7708;DHT22;3896;48.758;8.888;2023-09-19T05:32:57;17.30;99.90
7708;DHT22;3896;48.758;8.888;2023-09-19T05:35:23;17.30;99.90
7708;DHT22;3896;48.758;8.888;2023-09-19T05:37:50;17.30;99.90
7708;DHT22;3896;48.758;8.888;2023-09-19T05:40:19;17.30;99.90
7708;DHT22;3896;48.758;8.888;2023-09-19T05:42:45;17.20;99.90
7708;DHT22;3896;48.758;8.888;2023-09-19T05:45:12;17.20;99.90
7708;DHT22;3896;48.758;8.888;2023-09-19T05:47:38;17.20;99.90
7708;DHT22;3896;48.758;8.888;2023-09-19T05:50:06;17.20;99.90
7708;DHT22;3896;48.758;8.888;2023-09-19T05:52:37;17.20;99.90
7708;DHT22;3896;48.758;8.888;2023-09-19T05:55:05;17.20;99.90
7708;DHT22;3896;48.758;8.888;2023-09-19T05:57:32;17.10;99.90
7708;DHT22;3896;48.758;8.888;2023-09-19T05:59:58;17.10;99.90
7708;DHT22;3896;48.758;8.888;2023-09-19T06:02:23;17.10;99.90
7708;DHT22;3896;48.758;8.888;2023-09-19T06:04:49;17.10;99.90
7708;DHT22;3896;48.758;8.888;2023-09-19T06:07:15;17.10;99.90
7708;DHT22;3896;48.758;8.888;2023-09-19T06:09:41;17.10;99.90
7708;DHT22;3896;48.758;8.888;2023-09-19T06:12:07;17.00;99.90
7708;DHT22;3896;48.758;8.888;2023-09-19T06:14:33;17.00;99.90
7708;DHT22;3896;48.758;8.888;2023-09-19T06:16:58;17.00;99.90
7708;DHT22;3896;48.758;8.888;2023-09-19T06:19:25;17.00;99.90
7708;DHT22;3896;48.758;8.888;2023-09-19T06:21:52;17.00;99.90
7708;DHT22;3896;48.758;8.888;2023-09-19T06:24:19;17.00;99.90
7708;DHT22;3896;48.758;8.888;2023-09-19T06:26:45;17.00;99.90
7708;DHT22;3896;48.758;8.888;2023-09-19T06:29:10;17.00;99.90
7708;DHT22;3896;48.758;8.888;2023-09-19T06:31:38;17.00;99.90
7708;DHT22;3896;48.758;8.888;2023-09-19T06:34:04;17.00;99.90
7708;DHT22;3896;48.758;8.888;2023-09-19T06:36:29;17.10;99.90
7708;DHT22;3896;48.758;8.888;2023-09-19T06:38:55;17.10;99.90
7708;DHT22;3896;48.758;8.888;2023-09-19T06:41:21;17.10;99.90
7708;DHT22;3896;48.758;8.888;2023-09-19T06:43:50;17.10;99.90
7708;DHT22;3896;48.758;8.888;2023-09-19T06:46:18;17.10;99.90
7708;DHT22;3896;48.758;8.888;2023-09-19T06:48:44;17.20;99.90
7708;DHT22;3896;48.758;8.888;2023-09-19T06:51:10;17.20;99.90
7708;DHT22;3896;48.758;8.888;2023-09-19T06:53:35;17.20;99.90
7708;DHT22;3896;48.758;8.888;2023-09-19T06:56:02;17.20;99.90
7708;DHT22;3896;48.758;8.888;2023-09-19T06:58:27;17.30;99.90
7708;DHT22;3896;48.758;8.888;2023-09-19T07:00:53;17.30;99.90
7708;DHT22;3896;48.758;8.888;2023-09-19T07:03:19;17.30;99.90
7708;DHT22;3896;48.758;8.888;2023-09-19T07:05:48;17.40;99.90
7708;DHT22;3896;48.758;8.888;2023-09-19T07:08:14;17.40;99.90
7708;DHT22;3896;48.758;8.888;2023-09-19T07:10:41;17.40;99.90
7708;DHT22;3896;48.758;8.888;2023-09-19T07:13:14;17.40;99.90
7708;DHT22;3896;48.758;8.888;2023-09-19T07:15:42;17.50;99.90
7708;DHT22;3896;48.758;8.888;2023-09-19T07:18:13;17.50;99.90
7708;DHT22;3896;48.758;8.888;2023-09-19T07:20:40;17.50;99.90
7708;DHT22;3896;48.758;8.888;2023-09-19T07:23:11;17.50;99.90
7708;DHT22;3896;48.758;8.888;2023-09-19T07:25:39;17.60;99.90
7708;DHT22;3896;48.758;8.888;2023-09-19T07:28:05;17.60;99.90
7708;DHT22;3896;48.758;8.888;2023-09-19T07:30:31;17.60;99.90
7708;DHT22;3896;48.758;8.888;2023-09-19T07:32:57;17.60;99.90
7708;DHT22;3896;48.758;8.888;2023-09-19T07:35:22;17.70;99.90
7708;DHT22;3896;48.758;8.888;2023-09-19T07:37:49;17.70;99.90
7708;DHT22;3896;48.758;8.888;2023-09-19T07:40:18;17.70;99.90
7708;DHT22;3896;48.758;8.888;2023-09-19T07:42:44;17.70;99.90
7708;DHT22;3896;48.758;8.888;2023-09-19T07:45:12;17.80;99.90
7708;DHT22;3896;48.758;8.888;2023-09-19T07:47:44;17.90;99.90
7708;DHT22;3896;48.758;8.888;2023-09-19T07:50:09;17.90;99.90
7708;DHT22;3896;48.758;8.888;2023-09-19T07:52:36;18.00;99.90
7708;DHT22;3896;48.758;8.888;2023-09-19T07:55:07;18.00;99.90
7708;DHT22;3896;48.758;8.888;2023-09-19T07:57:35;18.10;99.90
7708;DHT22;3896;48.758;8.888;2023-09-19T08:00:00;18.20;99.90
7708;DHT22;3896;48.758;8.888;2023-09-19T08:02:26;18.30;99.90
7708;DHT22;3896;48.758;8.888;2023-09-19T08:04:53;18.30;99.90
7708;DHT22;3896;48.758;8.888;2023-09-19T08:07:19;18.40;99.90
7708;DHT22;3896;48.758;8.888;2023-09-19T08:09:44;18.50;99.90
7708;DHT22;3896;48.758;8.888;2023-09-19T08:12:11;18.50;99.90
7708;DHT22;3896;48.758;8.888;2023-09-19T08:14:37;18.60;99.90
7708;DHT22;3896;48.758;8.888;2023-09-19T08:17:03;18.60;99.90
7708;DHT22;3896;48.758;8.888;2023-09-19T08:19:31;18.70;99.90
7708;DHT22;3896;48.758;8.888;2023-09-19T08:22:00;18.70;99.90
7708;DHT22;3896;48.758;8.888;2023-09-19T08:24:27;18.80;99.90
7708;DHT22;3896;48.758;8.888;2023-09-19T08:26:54;18.90;99.90
7708;DHT22;3896;48.758;8.888;2023-09-19T08:29:21;19.00;99.90
7708;DHT22;3896;48.758;8.888;2023-09-19T08:31:46;19.10;99.90
7708;DHT22;3896;48.758;8.888;2023-09-19T08:34:14;19.10;99.90
7708;DHT22;3896;48.758;8.888;2023-09-19T08:36:40;19.20;99.90
7708;DHT22;3896;48.758;8.888;2023-09-19T08:39:08;19.30;99.90
7708;DHT22;3896;48.758;8.888;2023-09-19T08:41:34;19.40;99.90
7708;DHT22;3896;48.758;8.888;2023-09-19T08:44:00;19.50;99.90
7708;DHT22;3896;48.758;8.888;2023-09-19T08:46:30;19.60;99.90
7708;DHT22;3896;48.758;8.888;2023-09-19T08:49:12;19.60;99.90
7708;DHT22;3896;48.758;8.888;2023-09-19T08:51:43;19.70;99.90
7708;DHT22;3896;48.758;8.888;2023-09-19T08:54:28;19.80;99.90
7708;DHT22;3896;48.758;8.888;2023-09-19T08:56:56;19.90;99.90
7708;DHT22;3896;48.758;8.888;2023-09-19T08:59:25;20.10;99.90
7708;DHT22;3896;48.758;8.888;2023-09-19T09:01:53;20.30;99.70
7708;DHT22;3896;48.758;8.888;2023-09-19T09:04:19;20.50;98.40
7708;DHT22;3896;48.758;8.888;2023-09-19T09:06:46;20.60;97.10
7708;DHT22;3896;48.758;8.888;2023-09-19T09:09:15;20.70;96.10
7708;DHT22;3896;48.758;8.888;2023-09-19T09:11:41;20.80;95.40
7708;DHT22;3896;48.758;8.888;2023-09-19T09:14:07;20.90;94.60
7708;DHT22;3896;48.758;8.888;2023-09-19T09:16:33;21.10;93.40
7708;DHT22;3896;48.758;8.888;2023-09-19T09:18:59;21.30;92.50
7708;DHT22;3896;48.758;8.888;2023-09-19T09:21:26;21.40;91.60
7708;DHT22;3896;48.758;8.888;2023-09-19T09:23:51;21.60;91.10
7708;DHT22;3896;48.758;8.888;2023-09-19T09:29:04;21.80;90.40
7708;DHT22;3896;48.758;8.888;2023-09-19T09:31:29;22.00;90.00
7708;DHT22;3896;48.758;8.888;2023-09-19T09:33:55;22.10;87.60
7708;DHT22;3896;48.758;8.888;2023-09-19T09:36:34;22.30;87.50
7708;DHT22;3896;48.758;8.888;2023-09-19T09:39:02;22.40;85.80
7708;DHT22;3896;48.758;8.888;2023-09-19T09:41:41;22.60;84.20
7708;DHT22;3896;48.758;8.888;2023-09-19T09:44:17;22.80;82.60
7708;DHT22;3896;48.758;8.888;2023-09-19T09:46:44;22.90;81.80
7708;DHT22;3896;48.758;8.888;2023-09-19T09:49:26;22.90;81.10
7708;DHT22;3896;48.758;8.888;2023-09-19T09:52:07;23.00;80.70
7708;DHT22;3896;48.758;8.888;2023-09-19T09:54:34;23.10;79.00
7708;DHT22;3896;48.758;8.888;2023-09-19T09:57:07;23.20;77.70
7708;DHT22;3896;48.758;8.888;2023-09-19T09:59:47;23.30;77.20
7708;DHT22;3896;48.758;8.888;2023-09-19T10:02:18;23.30;75.30
7708;DHT22;3896;48.758;8.888;2023-09-19T10:04:49;23.50;74.70
7708;DHT22;3896;48.758;8.888;2023-09-19T10:07:31;23.60;73.40
7708;DHT22;3896;48.758;8.888;2023-09-19T10:10:34;23.70;73.10
7708;DHT22;3896;48.758;8.888;2023-09-19T10:13:09;23.70;71.90
7708;DHT22;3896;48.758;8.888;2023-09-19T10:15:38;23.90;70.80
7708;DHT22;3896;48.758;8.888;2023-09-19T10:18:06;23.90;70.60
7708;DHT22;3896;48.758;8.888;2023-09-19T10:20:36;24.00;70.80
7708;DHT22;3896;48.758;8.888;2023-09-19T10:23:11;24.00;69.80
7708;DHT22;3896;48.758;8.888;2023-09-19T10:25:39;24.10;69.40
7708;DHT22;3896;48.758;8.888;2023-09-19T10:28:13;24.20;68.90
7708;DHT22;3896;48.758;8.888;2023-09-19T10:30:46;24.30;67.80
7708;DHT22;3896;48.758;8.888;2023-09-19T10:33:20;24.30;67.40
7708;DHT22;3896;48.758;8.888;2023-09-19T10:35:48;24.30;67.50
7708;DHT22;3896;48.758;8.888;2023-09-19T10:38:17;24.30;66.20
7708;DHT22;3896;48.758;8.888;2023-09-19T10:40:44;24.50;66.30
7708;DHT22;3896;48.758;8.888;2023-09-19T10:43:16;24.60;65.10
7708;DHT22;3896;48.758;8.888;2023-09-19T10:45:45;24.70;64.10
7708;DHT22;3896;48.758;8.888;2023-09-19T10:48:16;24.80;62.80
7708;DHT22;3896;48.758;8.888;2023-09-19T10:50:51;24.90;61.90
7708;DHT22;3896;48.758;8.888;2023-09-19T10:53:18;25.00;61.30
7708;DHT22;3896;48.758;8.888;2023-09-19T10:55:58;25.20;61.40
7708;DHT22;3896;48.758;8.888;2023-09-19T10:58:29;25.20;61.00
7708;DHT22;3896;48.758;8.888;2023-09-19T11:00:56;25.20;60.10
7708;DHT22;3896;48.758;8.888;2023-09-19T11:03:25;25.30;59.70
7708;DHT22;3896;48.758;8.888;2023-09-19T11:08:51;25.50;58.80
7708;DHT22;3896;48.758;8.888;2023-09-19T11:11:39;25.50;58.60
7708;DHT22;3896;48.758;8.888;2023-09-19T11:30:51;25.90;56.20
7708;DHT22;3896;48.758;8.888;2023-09-19T11:33:25;26.00;56.00
7708;DHT22;3896;48.758;8.888;2023-09-19T11:46:27;26.80;54.30
7708;DHT22;3896;48.758;8.888;2023-09-19T11:48:54;26.80;53.90
7708;DHT22;3896;48.758;8.888;2023-09-19T11:51:21;26.90;53.90
7708;DHT22;3896;48.758;8.888;2023-09-19T11:53:54;27.10;53.20
7708;DHT22;3896;48.758;8.888;2023-09-19T11:56:22;27.30;52.60
7708;DHT22;3896;48.758;8.888;2023-09-19T11:58:51;27.40;52.30
7708;DHT22;3896;48.758;8.888;2023-09-19T12:01:32;27.50;52.10
7708;DHT22;3896;48.758;8.888;2023-09-19T12:04:00;27.70;51.60
7708;DHT22;3896;48.758;8.888;2023-09-19T12:06:30;27.90;51.20
7708;DHT22;3896;48.758;8.888;2023-09-19T12:08:58;28.10;50.90
7708;DHT22;3896;48.758;8.888;2023-09-19T12:11:29;28.30;50.60
7708;DHT22;3896;48.758;8.888;2023-09-19T12:13:58;28.40;50.10
7708;DHT22;3896;48.758;8.888;2023-09-19T12:16:26;28.60;49.90
7708;DHT22;3896;48.758;8.888;2023-09-19T12:18:55;28.70;49.70
7708;DHT22;3896;48.758;8.888;2023-09-19T12:21:32;28.80;48.80
7708;DHT22;3896;48.758;8.888;2023-09-19T12:24:07;29.00;48.40
7708;DHT22;3896;48.758;8.888;2023-09-19T12:26:42;29.20;47.70
7708;DHT22;3896;48.758;8.888;2023-09-19T12:29:44;29.30;47.90
7708;DHT22;3896;48.758;8.888;2023-09-19T12:32:10;29.50;47.80
7708;DHT22;3896;48.758;8.888;2023-09-19T12:34:36;29.70;46.80
7708;DHT22;3896;48.758;8.888;2023-09-19T12:39:45;29.90;46.30
7708;DHT22;3896;48.758;8.888;2023-09-19T12:42:25;29.90;46.20
7708;DHT22;3896;48.758;8.888;2023-09-19T12:44:55;29.80;46.50
7708;DHT22;3896;48.758;8.888;2023-09-19T12:47:23;29.80;46.00
7708;DHT22;3896;48.758;8.888;2023-09-19T12:52:48;29.80;46.00
7708;DHT22;3896;48.758;8.888;2023-09-19T13:00:51;30.20;45.10
7708;DHT22;3896;48.758;8.888;2023-09-19T13:03:28;30.30;45.50
7708;DHT22;3896;48.758;8.888;2023-09-19T13:05:59;30.30;45.40
7708;DHT22;3896;48.758;8.888;2023-09-19T13:08:30;30.40;45.00
7708;DHT22;3896;48.758;8.888;2023-09-19T13:13:33;30.50;45.20
7708;DHT22;3896;48.758;8.888;2023-09-19T13:16:00;30.70;44.80
7708;DHT22;3896;48.758;8.888;2023-09-19T13:18:27;30.90;44.30
7708;DHT22;3896;48.758;8.888;2023-09-19T13:21:08;31.10;44.10
7708;DHT22;3896;48.758;8.888;2023-09-19T13:23:51;31.20;44.00
7708;DHT22;3896;48.758;8.888;2023-09-19T13:26:17;31.30;43.70
7708;DHT22;3896;48.758;8.888;2023-09-19T13:28:43;31.40;43.60
7708;DHT22;3896;48.758;8.888;2023-09-19T13:31:09;31.50;43.90
7708;DHT22;3896;48.758;8.888;2023-09-19T13:33:43;31.60;43.80
7708;DHT22;3896;48.758;8.888;2023-09-19T13:36:09;31.70;43.00
7708;DHT22;3896;48.758;8.888;2023-09-19T13:38:35;31.90;42.80
7708;DHT22;3896;48.758;8.888;2023-09-19T13:41:00;32.00;42.10
7708;DHT22;3896;48.758;8.888;2023-09-19T13:43:27;32.20;41.60
7708;DHT22;3896;48.758;8.888;2023-09-19T13:45:54;32.30;41.70
7708;DHT22;3896;48.758;8.888;2023-09-19T13:48:19;32.40;41.70
7708;DHT22;3896;48.758;8.888;2023-09-19T13:50:48;32.40;41.50
7708;DHT22;3896;48.758;8.888;2023-09-19T13:53:13;32.50;41.60
7708;DHT22;3896;48.758;8.888;2023-09-19T13:55:39;32.50;41.30
7708;DHT22;3896;48.758;8.888;2023-09-19T13:58:05;32.60;41.40
7708;DHT22;3896;48.758;8.888;2023-09-19T14:00:32;32.70;41.40
7708;DHT22;3896;48.758;8.888;2023-09-19T14:03:00;32.70;40.40
7708;DHT22;3896;48.758;8.888;2023-09-19T14:05:26;32.80;39.70
7708;DHT22;3896;48.758;8.888;2023-09-19T14:07:53;32.90;39.60
7708;DHT22;3896;48.758;8.888;2023-09-19T14:10:21;33.00;39.10
7708;DHT22;3896;48.758;8.888;2023-09-19T14:12:47;33.10;39.40
7708;DHT22;3896;48.758;8.888;2023-09-19T14:15:13;33.10;39.10
7708;DHT22;3896;48.758;8.888;2023-09-19T14:17:39;33.20;38.60
7708;DHT22;3896;48.758;8.888;2023-09-19T14:20:05;33.20;38.50
7708;DHT22;3896;48.758;8.888;2023-09-19T14:22:32;33.20;38.40
7708;DHT22;3896;48.758;8.888;2023-09-19T14:24:58;33.10;38.50
7708;DHT22;3896;48.758;8.888;2023-09-19T14:27:25;33.10;38.50
7708;DHT22;3896;48.758;8.888;2023-09-19T14:29:51;33.10;38.20
7708;DHT22;3896;48.758;8.888;2023-09-19T14:32:17;33.10;37.80
7708;DHT22;3896;48.758;8.888;2023-09-19T14:34:43;33.10;37.50
7708;DHT22;3896;48.758;8.888;2023-09-19T14:37:09;33.10;37.20
7708;DHT22;3896;48.758;8.888;2023-09-19T14:39:36;33.10;37.00
7708;DHT22;3896;48.758;8.888;2023-09-19T14:42:04;33.20;37.50
7708;DHT22;3896;48.758;8.888;2023-09-19T14:44:30;33.20;37.20
7708;DHT22;3896;48.758;8.888;2023-09-19T14:46:55;33.10;37.10
7708;DHT22;3896;48.758;8.888;2023-09-19T14:49:21;33.10;37.20
7708;DHT22;3896;48.758;8.888;2023-09-19T14:51:46;32.90;37.20
7708;DHT22;3896;48.758;8.888;2023-09-19T14:54:15;32.80;37.30
7708;DHT22;3896;48.758;8.888;2023-09-19T14:56:42;32.70;37.20
7708;DHT22;3896;48.758;8.888;2023-09-19T14:59:08;32.50;37.30
7708;DHT22;3896;48.758;8.888;2023-09-19T15:01:36;32.40;36.90
7708;DHT22;3896;48.758;8.888;2023-09-19T15:04:02;32.30;37.40
7708;DHT22;3896;48.758;8.888;2023-09-19T15:06:27;32.10;37.60
7708;DHT22;3896;48.758;8.888;2023-09-19T15:08:53;32.00;37.90
7708;DHT22;3896;48.758;8.888;2023-09-19T15:11:19;31.80;38.30
7708;DHT22;3896;48.758;8.888;2023-09-19T15:13:47;31.60;38.90
7708;DHT22;3896;48.758;8.888;2023-09-19T15:16:13;31.40;39.50
7708;DHT22;3896;48.758;8.888;2023-09-19T15:18:40;31.20;39.60
7708;DHT22;3896;48.758;8.888;2023-09-19T15:21:08;31.00;39.80
7708;DHT22;3896;48.758;8.888;2023-09-19T15:23:35;30.70;40.30
7708;DHT22;3896;48.758;8.888;2023-09-19T15:26:02;30.60;40.20
7708;DHT22;3896;48.758;8.888;2023-09-19T15:28:28;30.50;40.10
7708;DHT22;3896;48.758;8.888;2023-09-19T15:31:02;30.30;40.40
7708;DHT22;3896;48.758;8.888;2023-09-19T15:33:28;30.10;41.10
7708;DHT22;3896;48.758;8.888;2023-09-19T15:36:05;29.90;41.50
7708;DHT22;3896;48.758;8.888;2023-09-19T15:38:31;29.60;41.90
7708;DHT22;3896;48.758;8.888;2023-09-19T15:40:57;29.40;41.70
7708;DHT22;3896;48.758;8.888;2023-09-19T15:43:23;29.30;42.40
7708;DHT22;3896;48.758;8.888;2023-09-19T15:45:49;29.20;42.30
7708;DHT22;3896;48.758;8.888;2023-09-19T15:48:15;29.10;42.50
7708;DHT22;3896;48.758;8.888;2023-09-19T15:50:42;29.00;42.60
7708;DHT22;3896;48.758;8.888;2023-09-19T15:53:07;28.90;42.60
7708;DHT22;3896;48.758;8.888;2023-09-19T15:55:40;28.80;43.90
7708;DHT22;3896;48.758;8.888;2023-09-19T15:58:06;28.60;43.60
7708;DHT22;3896;48.758;8.888;2023-09-19T16:00:33;28.50;43.60
7708;DHT22;3896;48.758;8.888;2023-09-19T16:03:02;28.40;43.60
7708;DHT22;3896;48.758;8.888;2023-09-19T16:05:28;28.30;43.90
7708;DHT22;3896;48.758;8.888;2023-09-19T16:08:03;28.20;43.80
7708;DHT22;3896;48.758;8.888;2023-09-19T16:10:29;28.10;44.00
7708;DHT22;3896;48.758;8.888;2023-09-19T16:12:54;28.00;44.00
7708;DHT22;3896;48.758;8.888;2023-09-19T16:15:20;27.90;44.30
7708;DHT22;3896;48.758;8.888;2023-09-19T16:17:46;27.80;44.30
7708;DHT22;3896;48.758;8.888;2023-09-19T16:20:12;27.80;44.30
7708;DHT22;3896;48.758;8.888;2023-09-19T16:22:38;27.70;44.40
7708;DHT22;3896;48.758;8.888;2023-09-19T16:25:05;27.60;44.80
7708;DHT22;3896;48.758;8.888;2023-09-19T16:27:31;27.50;45.00
7708;DHT22;3896;48.758;8.888;2023-09-19T16:29:56;27.40;45.20
7708;DHT22;3896;48.758;8.888;2023-09-19T16:32:22;27.30;45.40
7708;DHT22;3896;48.758;8.888;2023-09-19T16:34:47;27.20;45.50
7708;DHT22;3896;48.758;8.888;2023-09-19T16:37:13;27.10;46.00
7708;DHT22;3896;48.758;8.888;2023-09-19T16:39:42;27.00;46.00
7708;DHT22;3896;48.758;8.888;2023-09-19T16:42:08;26.90;46.30
7708;DHT22;3896;48.758;8.888;2023-09-19T16:44:35;26.80;47.20
7708;DHT22;3896;48.758;8.888;2023-09-19T16:47:00;26.70;47.10
7708;DHT22;3896;48.758;8.888;2023-09-19T16:49:28;26.60;47.10
7708;DHT22;3896;48.758;8.888;2023-09-19T16:51:55;26.50;47.40
7708;DHT22;3896;48.758;8.888;2023-09-19T16:54:20;26.30;48.20
7708;DHT22;3896;48.758;8.888;2023-09-19T16:56:46;26.20;48.40
7708;DHT22;3896;48.758;8.888;2023-09-19T16:59:11;26.10;48.30
7708;DHT22;3896;48.758;8.888;2023-09-19T17:01:38;26.00;48.20
7708;DHT22;3896;48.758;8.888;2023-09-19T17:04:04;25.90;48.20
7708;DHT22;3896;48.758;8.888;2023-09-19T17:06:31;25.90;48.40
7708;DHT22;3896;48.758;8.888;2023-09-19T17:08:56;25.70;48.50
7708;DHT22;3896;48.758;8.888;2023-09-19T17:11:22;25.70;48.70
7708;DHT22;3896;48.758;8.888;2023-09-19T17:13:51;25.60;49.20
7708;DHT22;3896;48.758;8.888;2023-09-19T17:16:22;25.50;49.70
7708;DHT22;3896;48.758;8.888;2023-09-19T17:18:52;25.40;50.20
7708;DHT22;3896;48.758;8.888;2023-09-19T17:21:21;25.30;50.80
7708;DHT22;3896;48.758;8.888;2023-09-19T17:23:47;25.20;51.50